Time;durP1;ratioP1;P1;durP2;ratioP2;P2;SDS_P1;SDS_P2;PMS_P1;PMS_P2;Temp;Humidity;BMP_temperature;BMP_pressure;BME280_temperature;BME280_humidity;BME280_pressure;Samples;Min_cycle;Max_cycle;Signal;HPM_P1;HPM_P2
2022/05/02 00:00:49;;;;;;;;;;;;;;;18.63;56.76;99658.50;2064356;28;20410;-44
2022/05/02 00:01:50;;;;;;;;;;;;;;;18.62;56.80;99665.00;2065452;28;19927;-45
2022/05/02 00:02:50;;;;;;;;;;;;;;;18.63;56.81;99666.69;2066269;28;19967;-43
2022/05/02 00:03:51;;;;;;;;;;;;;;;18.62;56.84;99667.72;2065481;28;19963;-43
2022/05/02 00:04:51;;;;;;;;;;;;;;;18.61;57.06;99671.47;2063484;28;19971;-44
2022/05/02 00:05:52;;;;;;;;;;;;;;;18.61;56.97;99671.47;2068926;28;20719;-43
2022/05/02 00:06:52;;;;;;;;;;;;;;;18.62;57.05;99662.28;2068019;28;19917;-43
2022/05/02 00:07:52;;;;;;;;;;;;;;;18.61;56.91;99663.25;2065654;28;20062;-44
2022/05/02 00:08:53;;;;;;;;;;;;;;;18.61;56.96;99660.53;2066131;28;19956;-43
2022/05/02 00:09:53;;;;;;;;;;;;;;;18.61;57.00;99655.06;2068289;28;19970;-44
2022/05/02 00:10:53;;;;;;;;;;;;;;;18.60;57.08;99665.16;2067501;28;19964;-44
2022/05/02 00:11:53;;;;;;;;;;;;;;;18.62;56.99;99656.81;2067034;28;20211;-45
2022/05/02 00:12:54;;;;;;;;;;;;;;;18.61;56.91;99655.94;2067309;28;19921;-43
2022/05/02 00:13:54;;;;;;;;;;;;;;;18.63;57.08;99661.25;2062853;28;19960;-44
2022/05/02 00:14:54;;;;;;;;;;;;;;;18.62;57.06;99659.53;2063529;28;19917;-43
2022/05/02 00:15:55;;;;;;;;;;;;;;;18.62;56.87;99656.81;2061141;28;20579;-42
2022/05/02 00:16:55;;;;;;;;;;;;;;;18.62;56.81;99663.13;2063023;28;19968;-44
2022/05/02 00:17:59;;;;;;;;;;;;;;;18.61;56.92;99655.94;2062481;28;19917;-42
2022/05/02 00:18:59;;;;;;;;;;;;;;;18.61;56.83;99655.94;2061672;28;19997;-45
2022/05/02 00:19:59;;;;;;;;;;;;;;;18.62;56.94;99654.06;2065715;28;19928;-44
2022/05/02 00:21:00;;;;;;;;;;;;;;;18.63;56.96;99658.50;2064307;28;20000;-44
2022/05/02 00:22:00;;;;;;;;;;;;;;;18.61;56.92;99645.00;2063820;28;19968;-43
2022/05/02 00:23:02;;;;;;;;;;;;;;;18.62;56.84;99643.16;2061385;28;20199;-43
2022/05/02 00:24:02;;;;;;;;;;;;;;;18.63;57.01;99642.13;2066337;28;19963;-44
2022/05/02 00:25:03;;;;;;;;;;;;;;;18.62;56.95;99638.56;2065148;28;19913;-44
2022/05/02 00:26:04;;;;;;;;;;;;;;;18.61;56.83;99647.75;2065654;28;20024;-45
2022/05/02 00:27:04;;;;;;;;;;;;;;;18.62;56.83;99648.63;2062824;28;20618;-44
2022/05/02 00:28:05;;;;;;;;;;;;;;;18.62;57.01;99648.63;2063166;28;20157;-44
2022/05/02 00:29:05;;;;;;;;;;;;;;;18.61;56.91;99653.19;2060440;28;20646;-43
2022/05/02 00:30:07;;;;;;;;;;;;;;;18.60;56.86;99642.47;2063936;28;19967;-44
2022/05/02 00:31:07;;;;;;;;;;;;;;;18.59;56.92;99638.88;2065936;28;20016;-43
2022/05/02 00:32:09;;;;;;;;;;;;;;;18.60;56.99;99642.47;2066660;28;20278;-43
2022/05/02 00:33:10;;;;;;;;;;;;;;;18.59;56.96;99647.06;2062798;28;19924;-43
2022/05/02 00:34:10;;;;;;;;;;;;;;;18.60;57.02;99650.66;2066439;28;20029;-43
2022/05/02 00:35:10;;;;;;;;;;;;;;;18.59;57.10;99641.59;2067404;28;19923;-44
2022/05/02 00:36:11;;;;;;;;;;;;;;;18.59;57.15;99647.06;2063081;28;19996;-43
2022/05/02 00:37:11;;;;;;;;;;;;;;;18.60;57.18;99647.91;2067226;28;20233;-44
2022/05/02 00:38:12;;;;;;;;;;;;;;;18.59;57.09;99646.19;2064235;28;20037;-45
2022/05/02 00:39:12;;;;;;;;;;;;;;;18.59;57.22;99646.19;2063668;28;19927;-45
2022/05/02 00:40:13;;;;;;;;;;;;;;;18.60;57.20;99647.91;2059658;28;20300;-44
2022/05/02 00:41:14;;;;;;;;;;;;;;;18.59;57.24;99648.91;2067974;28;20187;-43
2022/05/02 00:42:14;;;;;;;;;;;;;;;18.58;57.13;99642.59;2064433;28;20295;-44
2022/05/02 00:43:14;;;;;;;;;;;;;;;18.59;57.18;99646.19;2062290;28;20326;-43
2022/05/02 00:44:15;;;;;;;;;;;;;;;18.60;57.16;99645.19;2063093;28;19935;-45
2022/05/02 00:45:16;;;;;;;;;;;;;;;18.60;57.26;99642.47;2062438;28;19954;-42
2022/05/02 00:46:21;;;;;;;;;;;;;;;18.60;57.19;99634.28;2065921;28;20404;-44
2022/05/02 00:47:21;;;;;;;;;;;;;;;18.60;57.14;99642.47;2065653;28;19917;-44
2022/05/02 00:48:22;;;;;;;;;;;;;;;18.60;57.13;99643.31;2065468;28;19924;-42
2022/05/02 00:49:22;;;;;;;;;;;;;;;18.60;57.10;99637.84;2064061;28;19909;-42
2022/05/02 00:50:42;;;;;;;;;;;;;;;18.60;57.04;99642.47;2065537;28;19963;-43
2022/05/02 00:51:42;;;;;;;;;;;;;;;18.60;57.02;99640.56;2063851;28;19921;-43
2022/05/02 00:52:42;;;;;;;;;;;;;;;18.59;57.16;99644.34;2066257;28;20469;-44
2022/05/02 00:53:44;;;;;;;;;;;;;;;18.59;57.03;99630.69;2067127;28;19925;-42
2022/05/02 00:54:45;;;;;;;;;;;;;;;18.59;57.10;99640.72;2065982;28;20471;-43
2022/05/02 00:55:46;;;;;;;;;;;;;;;18.58;57.27;99633.56;2064679;28;20029;-43
2022/05/02 00:56:47;;;;;;;;;;;;;;;18.59;57.18;99640.72;2067827;28;19971;-43
2022/05/02 00:57:47;;;;;;;;;;;;;;;18.58;57.17;99633.56;2066762;28;19974;-44
2022/05/02 00:58:50;;;;;;;;;;;;;;;18.58;57.28;99628.94;2063261;28;20380;-43
2022/05/02 00:59:50;;;;;;;;;;;;;;;18.58;57.17;99633.56;2061869;28;19917;-42
2022/05/02 01:00:51;;;;;;;;;;;;;;;18.57;57.15;99626.38;2065679;28;19917;-43
2022/05/02 01:01:51;;;;;;;;;;;;;;;18.57;57.33;99629.97;2067056;28;19979;-44
2022/05/02 01:02:51;;;;;;;;;;;;;;;18.58;57.24;99634.41;2061243;28;19921;-44
2022/05/02 01:03:52;;;;;;;;;;;;;;;18.57;57.27;99629.09;2064193;28;20169;-43
2022/05/02 01:04:52;;;;;;;;;;;;;;;18.57;57.44;99627.25;2067016;28;20153;-43
2022/05/02 01:07:12;;;;;;;;;;;;;;;18.57;57.34;99621.78;2065113;28;19909;-43
2022/05/02 01:08:12;;;;;;;;;;;;;;;18.57;57.39;99623.63;2066493;28;20039;-44
2022/05/02 01:09:12;;;;;;;;;;;;;;;18.56;57.43;99625.53;2068408;28;19928;-43
2022/05/02 01:10:17;;;;;;;;;;;;;;;18.57;57.42;99623.63;2064874;28;20670;-42
2022/05/02 01:11:17;;;;;;;;;;;;;;;18.58;57.30;99625.38;2066594;28;20104;-43
2022/05/02 01:12:22;;;;;;;;;;;;;;;18.58;57.29;99628.09;2067309;28;20190;-42
2022/05/02 01:13:39;;;;;;;;;;;;;;;18.58;57.28;99625.38;2063863;28;20301;-43
2022/05/02 01:14:40;;;;;;;;;;;;;;;18.58;57.25;99623.50;2065295;28;20602;-43
2022/05/02 01:15:40;;;;;;;;;;;;;;;18.58;57.20;99623.50;2066725;28;19936;-45
2022/05/02 01:16:40;;;;;;;;;;;;;;;18.58;57.22;99630.84;2066818;28;20796;-43
2022/05/02 01:17:41;;;;;;;;;;;;;;;18.57;57.29;99615.44;2066126;28;19917;-43
2022/05/02 01:18:42;;;;;;;;;;;;;;;18.58;57.21;99622.66;2066981;28;19909;-43
2022/05/02 01:19:43;;;;;;;;;;;;;;;18.58;57.16;99622.66;2064298;28;19917;-42
2022/05/02 01:20:43;;;;;;;;;;;;;;;18.58;57.19;99622.66;2064109;28;19921;-43
2022/05/02 01:21:44;;;;;;;;;;;;;;;18.58;57.35;99628.09;2066689;28;20330;-42
2022/05/02 01:22:44;;;;;;;;;;;;;;;18.57;57.20;99624.53;2066980;28;19917;-42
2022/05/02 01:23:46;;;;;;;;;;;;;;;18.57;57.26;99621.78;2063237;28;19909;-42
2022/05/02 01:24:48;;;;;;;;;;;;;;;18.58;57.31;99622.66;2065311;28;20020;-43
2022/05/02 01:25:48;;;;;;;;;;;;;;;18.57;57.31;99623.63;2066212;28;19917;-42
2022/05/02 01:26:48;;;;;;;;;;;;;;;18.57;57.29;99620.91;2064088;28;19928;-42
2022/05/02 01:27:48;;;;;;;;;;;;;;;18.56;57.19;99619.22;2067978;28;20217;-42
2022/05/02 01:28:50;;;;;;;;;;;;;;;18.55;57.32;99617.50;2065613;28;20557;-42
2022/05/02 01:29:50;;;;;;;;;;;;;;;18.55;57.37;99615.63;2069889;28;20715;-43
2022/05/02 01:30:51;;;;;;;;;;;;;;;18.56;57.36;99619.22;2062472;28;19921;-43
2022/05/02 01:31:54;;;;;;;;;;;;;;;18.55;57.41;99618.34;2065045;28;20255;-43
2022/05/02 01:32:55;;;;;;;;;;;;;;;18.55;57.48;99620.25;2062513;28;20226;-42
2022/05/02 01:33:55;;;;;;;;;;;;;;;18.54;57.49;99613.03;2067340;28;20343;-43
2022/05/02 01:34:55;;;;;;;;;;;;;;;18.54;57.45;99611.16;2060974;28;19953;-42
2022/05/02 01:35:56;;;;;;;;;;;;;;;18.55;57.39;99609.31;2059069;28;19924;-44
2022/05/02 01:36:56;;;;;;;;;;;;;;;18.54;57.59;99604.84;2066731;28;19921;-44
2022/05/02 01:37:57;;;;;;;;;;;;;;;18.55;57.56;99612.06;2063087;28;20371;-42
2022/05/02 01:38:57;;;;;;;;;;;;;;;18.55;57.50;99612.06;2063018;28;20240;-44
2022/05/02 01:39:57;;;;;;;;;;;;;;;18.54;57.42;99608.44;2066376;28;19917;-45
2022/05/02 01:40:59;;;;;;;;;;;;;;;18.55;57.40;99606.59;2064357;28;20206;-43
2022/05/02 01:42:04;;;;;;;;;;;;;;;18.54;57.59;99604.84;2066303;28;19923;-44
2022/05/02 01:43:04;;;;;;;;;;;;;;;18.55;57.54;99603.88;2066823;28;19975;-42
2022/05/02 01:44:05;;;;;;;;;;;;;;;18.55;57.54;99601.97;2065414;28;20615;-42
2022/05/02 01:45:05;;;;;;;;;;;;;;;18.55;57.40;99607.44;2065914;28;19909;-42
2022/05/02 01:46:06;;;;;;;;;;;;;;;18.55;57.48;99603.88;2065861;28;20163;-43
2022/05/02 01:47:07;;;;;;;;;;;;;;;18.54;57.54;99600.25;2068025;28;20413;-43
2022/05/02 01:48:07;;;;;;;;;;;;;;;18.56;57.37;99602.84;2064368;28;20011;-43
2022/05/02 01:49:08;;;;;;;;;;;;;;;18.55;57.49;99601.13;2061341;28;19927;-42
2022/05/02 01:50:08;;;;;;;;;;;;;;;18.54;57.51;99600.25;2065733;28;20280;-41
2022/05/02 01:51:08;;;;;;;;;;;;;;;18.54;57.52;99591.22;2064141;28;19917;-43
2022/05/02 01:52:09;;;;;;;;;;;;;;;18.54;57.26;99594.78;2065931;28;20354;-43
2022/05/02 01:53:09;;;;;;;;;;;;;;;18.54;57.42;99596.66;2063768;28;20319;-43
2022/05/02 01:54:09;;;;;;;;;;;;;;;18.54;57.39;99602.97;2066892;28;20161;-42
2022/05/02 01:55:09;;;;;;;;;;;;;;;18.55;57.34;99601.13;2065653;28;19913;-42
2022/05/02 01:56:10;;;;;;;;;;;;;;;18.54;57.38;99599.41;2065472;28;20549;-43
2022/05/02 01:57:10;;;;;;;;;;;;;;;18.54;57.33;99599.41;2065930;28;20015;-43
2022/05/02 01:58:10;;;;;;;;;;;;;;;18.54;57.42;99602.13;2067570;28;20296;-43
2022/05/02 01:59:11;;;;;;;;;;;;;;;18.53;57.38;99597.69;2065322;28;20498;-44
2022/05/02 02:00:12;;;;;;;;;;;;;;;18.54;57.48;99604.84;2065683;28;20307;-46
2022/05/02 02:01:12;;;;;;;;;;;;;;;18.54;57.34;99593.94;2067755;28;19913;-43
2022/05/02 02:02:12;;;;;;;;;;;;;;;18.53;57.36;99603.16;2065041;28;20059;-46
2022/05/02 02:03:13;;;;;;;;;;;;;;;18.54;57.51;99600.25;2063739;28;20016;-44
2022/05/02 02:05:50;;;;;;;;;;;;;;;18.53;57.58;99597.69;2064659;28;19914;-42
2022/05/02 02:06:51;;;;;;;;;;;;;;;18.53;57.35;99592.25;2067012;28;20464;-43
2022/05/02 02:07:51;;;;;;;;;;;;;;;18.53;57.46;99592.25;2066273;28;19920;-43
2022/05/02 02:08:51;;;;;;;;;;;;;;;18.53;57.51;99593.09;2065969;28;19959;-43
2022/05/02 02:09:52;;;;;;;;;;;;;;;18.54;57.45;99602.13;2066781;28;19921;-42
2022/05/02 02:10:53;;;;;;;;;;;;;;;18.54;57.50;99599.41;2064985;28;20236;-43
2022/05/02 02:11:54;;;;;;;;;;;;;;;18.54;57.54;99600.25;2067827;28;19956;-43
2022/05/02 02:12:54;;;;;;;;;;;;;;;18.55;57.48;99601.13;2065733;28;20170;-44
2022/05/02 02:13:54;;;;;;;;;;;;;;;18.54;57.39;99597.53;2067990;28;19921;-43
2022/05/02 02:14:55;;;;;;;;;;;;;;;18.54;57.53;99594.78;2066555;28;20427;-43
2022/05/02 02:15:55;;;;;;;;;;;;;;;18.54;57.49;99592.06;2064609;28;19910;-41
2022/05/02 02:16:56;;;;;;;;;;;;;;;18.54;57.45;99585.75;2069215;28;20982;-43
2022/05/02 02:17:56;;;;;;;;;;;;;;;18.54;57.31;99588.47;2067003;28;19917;-42
2022/05/02 02:18:56;;;;;;;;;;;;;;;18.54;57.20;99591.22;2065545;28;19922;-43
2022/05/02 02:19:57;;;;;;;;;;;;;;;18.53;57.46;99582.16;2067814;28;20688;-42
2022/05/02 02:20:57;;;;;;;;;;;;;;;18.54;57.33;99588.47;2066859;28;20290;-42
2022/05/02 02:22:16;;;;;;;;;;;;;;;18.55;57.50;99587.47;2067635;28;19909;-44
2022/05/02 02:23:16;;;;;;;;;;;;;;;18.54;57.50;99593.94;2066897;28;19925;-43
2022/05/02 02:24:16;;;;;;;;;;;;;;;18.52;57.41;99585.94;2066664;28;19929;-42
2022/05/02 02:25:17;;;;;;;;;;;;;;;18.53;57.47;99586.78;2069432;28;19917;-43
2022/05/02 02:26:17;;;;;;;;;;;;;;;18.52;57.50;99585.94;2065510;28;19956;-42
2022/05/02 02:27:18;;;;;;;;;;;;;;;18.52;57.53;99591.38;2064808;28;19917;-42
2022/05/02 02:28:18;;;;;;;;;;;;;;;18.53;57.50;99594.97;2067604;28;20359;-44
2022/05/02 02:29:18;;;;;;;;;;;;;;;18.52;57.54;99585.03;2064317;28;19924;-44
2022/05/02 02:30:19;;;;;;;;;;;;;;;18.51;57.60;99578.75;2066419;28;19921;-45
2022/05/02 02:31:19;;;;;;;;;;;;;;;18.52;57.61;99585.03;2062976;28;19916;-43
2022/05/02 02:32:19;;;;;;;;;;;;;;;18.52;57.60;99582.31;2068619;28;20385;-43
2022/05/02 02:33:20;;;;;;;;;;;;;;;18.51;57.45;99586.06;2067686;28;19931;-43
2022/05/02 02:34:20;;;;;;;;;;;;;;;18.51;57.60;99586.06;2065748;28;19921;-43
2022/05/02 02:35:21;;;;;;;;;;;;;;;18.51;57.51;99580.63;2067564;28;19917;-43
2022/05/02 02:36:21;;;;;;;;;;;;;;;18.51;57.65;99577.88;2064191;28;19918;-44
2022/05/02 02:37:21;;;;;;;;;;;;;;;18.51;57.52;99583.34;2065546;28;19916;-43
2022/05/02 02:38:21;;;;;;;;;;;;;;;18.51;57.54;99584.19;2068023;28;20300;-43
2022/05/02 02:39:22;;;;;;;;;;;;;;;18.51;57.60;99580.63;2065364;28;20434;-43
2022/05/02 02:40:22;;;;;;;;;;;;;;;18.51;57.61;99583.34;2062573;28;19913;-42
2022/05/02 02:41:22;;;;;;;;;;;;;;;18.51;57.57;99584.19;2067495;28;20225;-42
2022/05/02 02:42:23;;;;;;;;;;;;;;;18.52;57.69;99582.31;2062535;28;19963;-42
2022/05/02 02:43:24;;;;;;;;;;;;;;;18.51;57.71;99583.34;2067223;28;20307;-43
2022/05/02 02:44:24;;;;;;;;;;;;;;;18.52;57.69;99585.03;2068655;28;20004;-43
2022/05/02 02:45:24;;;;;;;;;;;;;;;18.52;57.53;99579.59;2065621;28;19917;-43
2022/05/02 02:46:25;;;;;;;;;;;;;;;18.52;57.65;99585.03;2065652;28;19909;-43
2022/05/02 02:47:25;;;;;;;;;;;;;;;18.52;57.53;99585.03;2066509;28;19924;-43
2022/05/02 02:48:25;;;;;;;;;;;;;;;18.52;57.50;99582.31;2067359;28;19932;-43
2022/05/02 02:49:26;;;;;;;;;;;;;;;18.51;57.58;99580.63;2066506;28;19921;-44
2022/05/02 02:50:26;;;;;;;;;;;;;;;18.52;57.57;99576.84;2065308;28;20316;-42
2022/05/02 02:51:26;;;;;;;;;;;;;;;18.50;57.50;99576.19;2063858;28;19917;-42
2022/05/02 02:52:27;;;;;;;;;;;;;;;18.50;57.62;99570.72;2067162;28;19992;-42
2022/05/02 02:53:27;;;;;;;;;;;;;;;18.51;57.66;99577.88;2065701;28;19924;-42
2022/05/02 02:54:28;;;;;;;;;;;;;;;18.50;57.53;99577.03;2062501;28;19940;-43
2022/05/02 02:55:28;;;;;;;;;;;;;;;18.50;57.61;99577.03;2063348;28;20356;-44
2022/05/02 02:56:28;;;;;;;;;;;;;;;18.50;57.62;99576.19;2063469;28;19913;-43
2022/05/02 02:57:28;;;;;;;;;;;;;;;18.50;57.61;99565.28;2065079;28;19919;-42
2022/05/02 02:58:29;;;;;;;;;;;;;;;18.50;57.75;99578.91;2061145;28;19916;-43
2022/05/02 02:59:30;;;;;;;;;;;;;;;18.49;57.72;99569.00;2069309;28;20807;-42
2022/05/02 03:00:30;;;;;;;;;;;;;;;18.49;57.78;99569.00;2064226;28;19924;-43
2022/05/02 03:01:30;;;;;;;;;;;;;;;18.49;57.72;99563.53;2063840;28;20186;-42
2022/05/02 03:02:31;;;;;;;;;;;;;;;18.48;57.67;99567.28;2066742;28;19972;-43
2022/05/02 03:03:31;;;;;;;;;;;;;;;18.48;57.65;99561.84;2065180;28;19921;-43
2022/05/02 03:06:02;;;;;;;;;;;;;;;18.49;57.64;99563.53;2065412;28;19955;-44
2022/05/02 03:07:03;;;;;;;;;;;;;;;18.48;57.79;99561.84;2066721;28;19917;-44
2022/05/02 03:08:03;;;;;;;;;;;;;;;18.49;57.77;99558.06;2066111;28;20429;-43
2022/05/02 03:09:04;;;;;;;;;;;;;;;18.49;57.77;99566.28;2067463;28;19915;-42
2022/05/02 03:10:04;;;;;;;;;;;;;;;18.49;57.75;99564.38;2067176;28;19913;-44
2022/05/02 03:11:04;;;;;;;;;;;;;;;18.49;57.78;99561.66;2065352;28;19920;-42
2022/05/02 03:12:05;;;;;;;;;;;;;;;18.49;57.81;99569.00;2062332;28;19923;-46
2022/05/02 03:13:05;;;;;;;;;;;;;;;18.49;57.64;99558.94;2061366;28;20305;-44
2022/05/02 03:14:06;;;;;;;;;;;;;;;18.49;57.81;99569.00;2064253;28;19925;-43
2022/05/02 03:15:06;;;;;;;;;;;;;;;18.49;57.69;99558.94;2067766;28;20142;-43
2022/05/02 03:16:07;;;;;;;;;;;;;;;18.49;57.76;99564.38;2065070;28;19924;-43
2022/05/02 03:17:07;;;;;;;;;;;;;;;18.49;57.71;99563.53;2060415;28;19967;-44
2022/05/02 03:18:08;;;;;;;;;;;;;;;18.50;57.68;99568.00;2067406;28;20264;-42
2022/05/02 03:19:08;;;;;;;;;;;;;;;18.50;57.70;99570.72;2064892;28;19928;-43
2022/05/02 03:20:08;;;;;;;;;;;;;;;18.49;57.69;99564.38;2069129;28;19924;-44
2022/05/02 03:21:09;;;;;;;;;;;;;;;18.49;57.73;99563.53;2066320;28;20320;-44
2022/05/02 03:22:09;;;;;;;;;;;;;;;18.48;57.71;99562.69;2067145;28;19909;-42
2022/05/02 03:23:09;;;;;;;;;;;;;;;18.48;57.65;99562.69;2065640;28;19920;-44
2022/05/02 03:24:10;;;;;;;;;;;;;;;18.48;57.57;99562.69;2067131;28;20460;-44
2022/05/02 03:25:10;;;;;;;;;;;;;;;18.47;57.62;99561.00;2067850;28;20033;-43
2022/05/02 03:26:10;;;;;;;;;;;;;;;18.48;57.69;99561.84;2065909;28;20330;-43
2022/05/02 03:27:10;;;;;;;;;;;;;;;18.47;57.75;99557.38;2068321;28;19917;-43
2022/05/02 03:28:11;;;;;;;;;;;;;;;18.47;57.70;99560.09;2067692;28;20359;-42
2022/05/02 03:29:11;;;;;;;;;;;;;;;18.46;57.72;99561.13;2067362;28;19917;-43
2022/05/02 03:30:11;;;;;;;;;;;;;;;18.47;57.71;99557.38;2065492;28;19909;-46
2022/05/02 03:31:12;;;;;;;;;;;;;;;18.47;57.80;99557.38;2067042;28;19910;-44
2022/05/02 03:32:12;;;;;;;;;;;;;;;18.47;57.73;99561.00;2067514;28;19955;-43
2022/05/02 03:33:13;;;;;;;;;;;;;;;18.46;57.79;99556.53;2065131;28;19909;-43
2022/05/02 03:34:13;;;;;;;;;;;;;;;18.47;57.78;99555.53;2067743;28;19917;-43
2022/05/02 03:35:13;;;;;;;;;;;;;;;18.47;57.82;99560.09;2067684;28;19910;-44
2022/05/02 03:36:13;;;;;;;;;;;;;;;18.46;57.72;99550.22;2064396;28;19956;-43
2022/05/02 03:37:14;;;;;;;;;;;;;;;18.46;57.74;99547.50;2066490;28;20308;-43
2022/05/02 03:38:14;;;;;;;;;;;;;;;18.46;57.76;99550.22;2065766;28;20038;-43
2022/05/02 03:39:15;;;;;;;;;;;;;;;18.47;57.76;99551.91;2067555;28;19916;-43
2022/05/02 03:40:15;;;;;;;;;;;;;;;18.47;57.92;99549.19;2065649;28;20357;-48
2022/05/02 03:41:16;;;;;;;;;;;;;;;18.47;57.75;99549.19;2066793;28;19929;-45
2022/05/02 03:42:16;;;;;;;;;;;;;;;18.48;57.82;99559.09;2067797;28;20587;-43
2022/05/02 03:43:16;;;;;;;;;;;;;;;18.47;57.80;99554.66;2064584;28;20107;-42
2022/05/02 03:44:16;;;;;;;;;;;;;;;18.46;57.75;99552.94;2065611;28;20536;-43
2022/05/02 03:45:17;;;;;;;;;;;;;;;18.47;57.68;99557.38;2067174;28;20443;-43
2022/05/02 03:46:17;;;;;;;;;;;;;;;18.46;57.74;99553.78;2067370;28;20479;-43
2022/05/02 03:47:18;;;;;;;;;;;;;;;18.46;57.78;99553.78;2063614;28;19924;-43
2022/05/02 03:48:19;;;;;;;;;;;;;;;18.46;57.81;99553.78;2064940;28;19913;-41
2022/05/02 03:49:19;;;;;;;;;;;;;;;18.46;57.66;99552.94;2065341;28;20094;-43
2022/05/02 03:50:19;;;;;;;;;;;;;;;18.46;57.75;99547.50;2067232;28;19923;-43
2022/05/02 03:51:20;;;;;;;;;;;;;;;18.46;57.71;99550.22;2067891;28;19936;-42
2022/05/02 03:52:20;;;;;;;;;;;;;;;18.46;57.65;99550.22;2060772;28;19921;-42
2022/05/02 03:53:20;;;;;;;;;;;;;;;18.45;57.72;99549.38;2065102;28;20315;-42
2022/05/02 03:54:21;;;;;;;;;;;;;;;18.45;57.80;99548.50;2063424;28;19925;-43
2022/05/02 03:55:21;;;;;;;;;;;;;;;18.44;57.64;99553.09;2064021;28;19913;-43
2022/05/02 03:56:21;;;;;;;;;;;;;;;18.45;57.71;99553.94;2063655;28;19921;-43
2022/05/02 03:57:22;;;;;;;;;;;;;;;18.44;57.79;99553.09;2063719;28;20469;-43
2022/05/02 03:58:22;;;;;;;;;;;;;;;18.43;57.81;99549.50;2063184;28;20080;-43
2022/05/02 03:59:22;;;;;;;;;;;;;;;18.43;57.65;99554.97;2068662;28;19917;-43
2022/05/02 04:00:22;;;;;;;;;;;;;;;18.42;57.78;99547.81;2065233;28;20588;-43
2022/05/02 04:01:23;;;;;;;;;;;;;;;18.43;57.78;99552.25;2059697;28;19976;-43
2022/05/02 04:02:23;;;;;;;;;;;;;;;18.43;57.74;99554.97;2064210;28;19913;-46
2022/05/02 04:03:24;;;;;;;;;;;;;;;18.45;57.89;99556.66;2063938;28;19936;-42
2022/05/02 04:04:24;;;;;;;;;;;;;;;18.43;57.79;99549.50;2062101;28;19918;-42
2022/05/02 04:05:24;;;;;;;;;;;;;;;18.45;57.77;99556.66;2065006;28;19920;-43
2022/05/02 04:06:24;;;;;;;;;;;;;;;18.45;57.75;99551.22;2062417;28;19928;-42
2022/05/02 04:07:25;;;;;;;;;;;;;;;18.45;57.88;99551.22;2065947;28;20436;-42
2022/05/02 04:08:25;;;;;;;;;;;;;;;18.45;57.82;99552.09;2067091;28;19963;-43
2022/05/02 04:09:25;;;;;;;;;;;;;;;18.45;57.82;99551.22;2065972;28;19917;-43
2022/05/02 04:10:26;;;;;;;;;;;;;;;18.45;57.86;99548.50;2067377;28;20352;-42
2022/05/02 04:11:26;;;;;;;;;;;;;;;18.45;57.86;99556.66;2066771;28;20010;-42
2022/05/02 04:12:27;;;;;;;;;;;;;;;18.45;57.91;99551.22;2065109;28;19953;-44
2022/05/02 04:13:27;;;;;;;;;;;;;;;18.46;57.85;99552.94;2066873;28;19921;-42
2022/05/02 04:14:28;;;;;;;;;;;;;;;18.44;57.92;99555.81;2064039;28;19917;-44
2022/05/02 04:15:28;;;;;;;;;;;;;;;18.45;57.90;99551.22;2064451;28;19917;-42
2022/05/02 04:16:29;;;;;;;;;;;;;;;18.45;57.96;99552.09;2064425;28;19982;-42
2022/05/02 04:17:29;;;;;;;;;;;;;;;18.45;57.81;99557.56;2064417;28;19917;-42
2022/05/02 04:18:29;;;;;;;;;;;;;;;18.45;57.77;99559.41;2064905;28;19928;-41
2022/05/02 04:19:29;;;;;;;;;;;;;;;18.45;57.73;99556.66;2063999;28;20381;-43
2022/05/02 04:20:30;;;;;;;;;;;;;;;18.43;57.85;99554.97;2066175;28;20257;-42
2022/05/02 04:21:30;;;;;;;;;;;;;;;18.43;57.83;99554.97;2066063;28;20478;-43
2022/05/02 04:22:30;;;;;;;;;;;;;;;18.43;57.81;99546.78;2064773;28;19925;-44
2022/05/02 04:23:31;;;;;;;;;;;;;;;18.43;57.82;99548.66;2063848;28;20378;-44
2022/05/02 04:24:31;;;;;;;;;;;;;;;18.43;57.79;99554.97;2066299;28;20666;-43
2022/05/02 04:25:32;;;;;;;;;;;;;;;18.43;57.89;99554.97;2064620;28;19920;-44
2022/05/02 04:26:32;;;;;;;;;;;;;;;18.42;57.96;99552.38;2065736;28;20442;-42
2022/05/02 04:27:32;;;;;;;;;;;;;;;18.42;57.92;99550.53;2065125;28;20151;-44
2022/05/02 04:28:34;;;;;;;;;;;;;;;18.42;57.88;99550.53;2066617;28;19972;-42
2022/05/02 04:29:34;;;;;;;;;;;;;;;18.41;57.86;99556.16;2064792;28;19924;-43
2022/05/02 04:30:35;;;;;;;;;;;;;;;18.41;57.86;99551.53;2065234;28;20317;-43
2022/05/02 04:31:35;;;;;;;;;;;;;;;18.42;57.96;99557.84;2068589;28;20032;-43
2022/05/02 04:32:35;;;;;;;;;;;;;;;18.41;58.00;99554.28;2065365;28;20273;-42
2022/05/02 04:33:36;;;;;;;;;;;;;;;18.41;57.94;99556.16;2060786;28;19921;-43
2022/05/02 04:34:36;;;;;;;;;;;;;;;18.41;58.08;99557.00;2061097;28;19917;-44
2022/05/02 04:35:36;;;;;;;;;;;;;;;18.41;57.94;99557.00;2065284;28;19917;-44
2022/05/02 04:36:37;;;;;;;;;;;;;;;18.42;57.98;99558.72;2066313;28;19944;-43
2022/05/02 04:37:37;;;;;;;;;;;;;;;18.42;57.99;99557.84;2063294;28;19914;-44
2022/05/02 04:38:38;;;;;;;;;;;;;;;18.42;58.01;99555.13;2062802;28;20323;-43
2022/05/02 04:39:38;;;;;;;;;;;;;;;18.41;57.91;99548.81;2065211;28;19917;-42
2022/05/02 04:40:38;;;;;;;;;;;;;;;18.41;57.95;99554.28;2063047;28;20829;-43
2022/05/02 04:41:39;;;;;;;;;;;;;;;18.41;58.04;99554.28;2064841;28;19917;-42
2022/05/02 04:42:39;;;;;;;;;;;;;;;18.42;58.05;99553.28;2066137;28;19960;-42
2022/05/02 04:43:41;;;;;;;;;;;;;;;18.42;57.94;99553.28;2063287;28;19929;-42
2022/05/02 04:44:41;;;;;;;;;;;;;;;18.42;58.04;99553.28;2065934;28;19917;-42
2022/05/02 04:45:41;;;;;;;;;;;;;;;18.42;58.04;99557.84;2065695;28;20323;-42
2022/05/02 04:46:41;;;;;;;;;;;;;;;18.41;57.88;99551.53;2064592;28;19921;-43
2022/05/02 04:47:42;;;;;;;;;;;;;;;18.41;57.95;99557.00;2063725;28;20544;-42
2022/05/02 04:48:42;;;;;;;;;;;;;;;18.40;57.99;99554.44;2066754;28;20343;-44
2022/05/02 04:49:42;;;;;;;;;;;;;;;18.41;57.95;99558.88;2067328;28;20361;-43
2022/05/02 04:50:43;;;;;;;;;;;;;;;18.41;57.94;99556.16;2060267;28;20817;-42
2022/05/02 04:51:43;;;;;;;;;;;;;;;18.40;57.96;99555.28;2063121;28;19918;-41
2022/05/02 04:52:43;;;;;;;;;;;;;;;18.41;57.98;99556.16;2061594;28;20340;-42
2022/05/02 04:53:44;;;;;;;;;;;;;;;18.39;58.14;99553.56;2063520;28;19924;-43
2022/05/02 04:54:44;;;;;;;;;;;;;;;18.39;57.97;99556.28;2066111;28;20395;-42
2022/05/02 04:55:44;;;;;;;;;;;;;;;18.39;58.11;99559.03;2066494;28;19963;-44
2022/05/02 04:56:44;;;;;;;;;;;;;;;18.40;57.94;99552.56;2065224;28;20892;-43
2022/05/02 04:57:45;;;;;;;;;;;;;;;18.39;58.11;99548.09;2061280;28;19924;-42
2022/05/02 04:58:45;;;;;;;;;;;;;;;18.39;58.10;99556.28;2067266;28;19917;-43
2022/05/02 04:59:46;;;;;;;;;;;;;;;18.40;57.92;99559.91;2066691;28;20015;-43
2022/05/02 05:00:47;;;;;;;;;;;;;;;18.39;57.97;99559.03;2066329;28;20379;-43
2022/05/02 05:01:47;;;;;;;;;;;;;;;18.40;58.10;99554.44;2062512;28;19917;-44
2022/05/02 05:02:47;;;;;;;;;;;;;;;18.39;58.13;99553.56;2067241;28;20470;-44
2022/05/02 05:03:47;;;;;;;;;;;;;;;18.40;58.02;99549.00;2063653;28;20343;-42
2022/05/02 05:04:48;;;;;;;;;;;;;;;18.40;58.01;99559.91;2066179;28;19924;-44
2022/05/02 05:05:48;;;;;;;;;;;;;;;18.40;58.01;99549.84;2067568;28;19924;-44
2022/05/02 05:06:48;;;;;;;;;;;;;;;18.40;57.95;99559.91;2065350;28;20320;-42
2022/05/02 05:07:49;;;;;;;;;;;;;;;18.40;57.97;99565.38;2065462;28;19909;-43
2022/05/02 05:08:49;;;;;;;;;;;;;;;18.40;57.93;99558.03;2064548;28;19935;-43
2022/05/02 05:09:49;;;;;;;;;;;;;;;18.39;58.04;99553.56;2062317;28;19963;-42
2022/05/02 05:10:56;;;;;;;;;;;;;;;18.39;57.96;99553.56;2068507;28;19925;-44
2022/05/02 05:12:14;;;;;;;;;;;;;;;18.40;57.98;99554.44;2063316;28;19909;-42
2022/05/02 05:13:18;;;;;;;;;;;;;;;18.40;57.98;99555.28;2062404;28;20242;-43
2022/05/02 05:17:25;;;;;;;;;;;;;;;18.39;58.07;99550.00;2066714;28;19921;-43
2022/05/02 05:18:31;;;;;;;;;;;;;;;18.39;57.97;99553.56;2061361;28;20058;-42
2022/05/02 05:19:32;;;;;;;;;;;;;;;18.39;58.12;99553.56;2067394;28;19917;-43
2022/05/02 05:20:38;;;;;;;;;;;;;;;18.38;58.08;99557.31;2065919;28;20346;-42
2022/05/02 05:21:52;;;;;;;;;;;;;;;18.38;58.08;99554.59;2065210;28;19909;-43
2022/05/02 05:23:15;;;;;;;;;;;;;;;18.38;58.13;99557.31;2061556;28;20335;-42
2022/05/02 05:24:34;;;;;;;;;;;;;;;18.37;58.20;99561.09;2063177;28;19921;-42
2022/05/02 05:25:49;;;;;;;;;;;;;;;18.38;58.18;99556.47;2066092;28;19920;-44